sensor_id;sensor_type;location;lat;lon;timestamp;P1;durP1;ratioP1;P2;durP2;ratioP2
61527;SDS011;47395;42.032;-8.634;2022-10-17T00:00:26;3.25;;;1.58;;
61527;SDS011;47395;42.032;-8.634;2022-10-17T00:02:27;1.85;;;1.48;;
61527;SDS011;47395;42.032;-8.634;2022-10-17T00:04:28;1.40;;;1.40;;
61527;SDS011;47395;42.032;-8.634;2022-10-17T00:06:29;2.10;;;1.92;;
61527;SDS011;47395;42.032;-8.634;2022-10-17T00:08:30;4.20;;;2.10;;
61527;SDS011;47395;42.032;-8.634;2022-10-17T00:10:30;4.20;;;1.70;;
61527;SDS011;47395;42.032;-8.634;2022-10-17T00:12:31;4.13;;;2.60;;
61527;SDS011;47395;42.032;-8.634;2022-10-17T00:14:32;2.35;;;2.15;;
61527;SDS011;47395;42.032;-8.634;2022-10-17T00:16:34;4.45;;;2.17;;
61527;SDS011;47395;42.032;-8.634;2022-10-17T00:18:38;1.95;;;1.85;;
61527;SDS011;47395;42.032;-8.634;2022-10-17T00:20:39;3.42;;;1.70;;
61527;SDS011;47395;42.032;-8.634;2022-10-17T00:22:40;3.38;;;1.70;;
61527;SDS011;47395;42.032;-8.634;2022-10-17T00:24:41;3.08;;;2.10;;
61527;SDS011;47395;42.032;-8.634;2022-10-17T00:26:42;2.30;;;2.20;;
61527;SDS011;47395;42.032;-8.634;2022-10-17T00:28:46;2.83;;;2.13;;
61527;SDS011;47395;42.032;-8.634;2022-10-17T00:30:54;2.20;;;2.10;;
61527;SDS011;47395;42.032;-8.634;2022-10-17T00:33:03;2.22;;;1.98;;
61527;SDS011;47395;42.032;-8.634;2022-10-17T00:35:04;4.63;;;2.38;;
61527;SDS011;47395;42.032;-8.634;2022-10-17T00:37:05;3.13;;;2.70;;
61527;SDS011;47395;42.032;-8.634;2022-10-17T00:39:08;5.15;;;2.83;;
61527;SDS011;47395;42.032;-8.634;2022-10-17T00:41:09;2.65;;;2.33;;
61527;SDS011;47395;42.032;-8.634;2022-10-17T00:43:15;5.30;;;2.15;;
61527;SDS011;47395;42.032;-8.634;2022-10-17T00:45:21;2.35;;;2.10;;
61527;SDS011;47395;42.032;-8.634;2022-10-17T00:47:24;1.90;;;1.90;;
61527;SDS011;47395;42.032;-8.634;2022-10-17T00:49:26;2.17;;;1.95;;
61527;SDS011;47395;42.032;-8.634;2022-10-17T00:51:36;2.47;;;2.05;;
61527;SDS011;47395;42.032;-8.634;2022-10-17T00:53:41;3.22;;;1.67;;
61527;SDS011;47395;42.032;-8.634;2022-10-17T00:55:47;1.77;;;1.60;;
61527;SDS011;47395;42.032;-8.634;2022-10-17T00:57:51;4.47;;;1.92;;
61527;SDS011;47395;42.032;-8.634;2022-10-17T00:59:53;3.58;;;1.98;;
61527;SDS011;47395;42.032;-8.634;2022-10-17T01:02:07;2.35;;;1.73;;
61527;SDS011;47395;42.032;-8.634;2022-10-17T01:04:10;1.92;;;1.83;;
61527;SDS011;47395;42.032;-8.634;2022-10-17T01:06:13;2.25;;;1.77;;
61527;SDS011;47395;42.032;-8.634;2022-10-17T01:08:14;2.85;;;1.70;;
61527;SDS011;47395;42.032;-8.634;2022-10-17T01:10:15;3.55;;;2.03;;
61527;SDS011;47395;42.032;-8.634;2022-10-17T01:13:01;3.90;;;1.83;;
61527;SDS011;47395;42.032;-8.634;2022-10-17T01:15:08;1.60;;;1.60;;
61527;SDS011;47395;42.032;-8.634;2022-10-17T01:17:44;3.47;;;2.13;;
61527;SDS011;47395;42.032;-8.634;2022-10-17T01:22:51;2.10;;;1.90;;
61527;SDS011;47395;42.032;-8.634;2022-10-17T01:33:27;2.55;;;2.28;;
61527;SDS011;47395;42.032;-8.634;2022-10-17T01:35:57;7.15;;;2.50;;
61527;SDS011;47395;42.032;-8.634;2022-10-17T01:38:12;3.05;;;2.75;;
61527;SDS011;47395;42.032;-8.634;2022-10-17T01:40:22;7.60;;;2.80;;
61527;SDS011;47395;42.032;-8.634;2022-10-17T01:45:31;6.00;;;3.50;;
61527;SDS011;47395;42.032;-8.634;2022-10-17T01:47:35;8.55;;;3.33;;
61527;SDS011;47395;42.032;-8.634;2022-10-17T01:49:38;8.43;;;3.50;;
61527;SDS011;47395;42.032;-8.634;2022-10-17T01:51:46;6.47;;;3.42;;
61527;SDS011;47395;42.032;-8.634;2022-10-17T01:54:08;4.05;;;3.58;;
61527;SDS011;47395;42.032;-8.634;2022-10-17T01:56:14;4.65;;;3.45;;
61527;SDS011;47395;42.032;-8.634;2022-10-17T01:58:20;3.83;;;3.38;;
61527;SDS011;47395;42.032;-8.634;2022-10-17T02:00:34;3.95;;;3.65;;
61527;SDS011;47395;42.032;-8.634;2022-10-17T02:02:37;5.53;;;3.85;;
61527;SDS011;47395;42.032;-8.634;2022-10-17T02:04:39;4.90;;;3.30;;
61527;SDS011;47395;42.032;-8.634;2022-10-17T02:06:41;6.85;;;3.50;;
61527;SDS011;47395;42.032;-8.634;2022-10-17T02:08:45;4.38;;;3.25;;
61527;SDS011;47395;42.032;-8.634;2022-10-17T02:10:59;4.03;;;3.10;;
61527;SDS011;47395;42.032;-8.634;2022-10-17T02:13:12;3.00;;;2.70;;
61527;SDS011;47395;42.032;-8.634;2022-10-17T02:15:58;2.70;;;2.50;;
61527;SDS011;47395;42.032;-8.634;2022-10-17T02:18:14;2.17;;;2.17;;
61527;SDS011;47395;42.032;-8.634;2022-10-17T02:20:30;2.08;;;1.98;;
61527;SDS011;47395;42.032;-8.634;2022-10-17T02:22:57;3.65;;;2.10;;
61527;SDS011;47395;42.032;-8.634;2022-10-17T02:25:13;4.97;;;2.00;;
61527;SDS011;47395;42.032;-8.634;2022-10-17T02:27:47;4.30;;;1.85;;
61527;SDS011;47395;42.032;-8.634;2022-10-17T02:30:04;1.63;;;1.60;;
61527;SDS011;47395;42.032;-8.634;2022-10-17T02:32:07;1.90;;;1.80;;
61527;SDS011;47395;42.032;-8.634;2022-10-17T02:36:45;3.38;;;1.63;;
61527;SDS011;47395;42.032;-8.634;2022-10-17T02:38:50;1.80;;;1.70;;
61527;SDS011;47395;42.032;-8.634;2022-10-17T02:40:54;4.72;;;2.58;;
61527;SDS011;47395;42.032;-8.634;2022-10-17T02:42:55;7.93;;;2.72;;
61527;SDS011;47395;42.032;-8.634;2022-10-17T02:44:59;3.72;;;2.50;;
61527;SDS011;47395;42.032;-8.634;2022-10-17T02:47:10;4.70;;;2.60;;
61527;SDS011;47395;42.032;-8.634;2022-10-17T02:49:23;2.72;;;2.63;;
61527;SDS011;47395;42.032;-8.634;2022-10-17T02:51:39;3.42;;;2.63;;
61527;SDS011;47395;42.032;-8.634;2022-10-17T02:56:23;4.50;;;3.10;;
61527;SDS011;47395;42.032;-8.634;2022-10-17T02:58:30;3.50;;;3.03;;
61527;SDS011;47395;42.032;-8.634;2022-10-17T03:00:34;3.08;;;2.97;;
61527;SDS011;47395;42.032;-8.634;2022-10-17T03:02:41;6.97;;;2.80;;
61527;SDS011;47395;42.032;-8.634;2022-10-17T03:04:45;5.28;;;3.10;;
61527;SDS011;47395;42.032;-8.634;2022-10-17T03:06:46;7.28;;;2.90;;
61527;SDS011;47395;42.032;-8.634;2022-10-17T03:08:48;5.40;;;3.05;;
61527;SDS011;47395;42.032;-8.634;2022-10-17T03:10:49;6.28;;;3.75;;
61527;SDS011;47395;42.032;-8.634;2022-10-17T03:12:51;4.20;;;3.47;;
61527;SDS011;47395;42.032;-8.634;2022-10-17T03:14:52;7.95;;;4.13;;
61527;SDS011;47395;42.032;-8.634;2022-10-17T03:16:53;5.07;;;4.10;;
61527;SDS011;47395;42.032;-8.634;2022-10-17T03:18:54;4.20;;;3.83;;
61527;SDS011;47395;42.032;-8.634;2022-10-17T03:20:56;5.10;;;4.05;;
61527;SDS011;47395;42.032;-8.634;2022-10-17T03:22:57;4.75;;;4.18;;
61527;SDS011;47395;42.032;-8.634;2022-10-17T03:24:58;5.85;;;4.18;;
61527;SDS011;47395;42.032;-8.634;2022-10-17T03:26:59;7.65;;;4.10;;
61527;SDS011;47395;42.032;-8.634;2022-10-17T03:29:00;4.68;;;4.38;;
61527;SDS011;47395;42.032;-8.634;2022-10-17T03:31:06;5.20;;;4.72;;
61527;SDS011;47395;42.032;-8.634;2022-10-17T03:33:09;4.68;;;4.43;;
61527;SDS011;47395;42.032;-8.634;2022-10-17T03:35:10;7.65;;;4.88;;
61527;SDS011;47395;42.032;-8.634;2022-10-17T03:37:12;33.50;;;6.57;;
61527;SDS011;47395;42.032;-8.634;2022-10-17T03:39:15;7.03;;;5.70;;
61527;SDS011;47395;42.032;-8.634;2022-10-17T03:41:16;6.55;;;5.80;;
61527;SDS011;47395;42.032;-8.634;2022-10-17T03:43:17;6.07;;;5.68;;
61527;SDS011;47395;42.032;-8.634;2022-10-17T03:45:17;11.15;;;4.70;;
61527;SDS011;47395;42.032;-8.634;2022-10-17T03:47:20;6.45;;;4.07;;
61527;SDS011;47395;42.032;-8.634;2022-10-17T03:49:21;4.20;;;3.80;;
61527;SDS011;47395;42.032;-8.634;2022-10-17T03:51:21;3.95;;;3.60;;
61527;SDS011;47395;42.032;-8.634;2022-10-17T03:53:27;3.83;;;3.58;;
61527;SDS011;47395;42.032;-8.634;2022-10-17T03:55:30;6.45;;;4.13;;
61527;SDS011;47395;42.032;-8.634;2022-10-17T03:57:33;6.43;;;3.83;;
61527;SDS011;47395;42.032;-8.634;2022-10-17T03:59:35;3.63;;;3.00;;
61527;SDS011;47395;42.032;-8.634;2022-10-17T04:01:42;3.10;;;3.00;;
61527;SDS011;47395;42.032;-8.634;2022-10-17T04:03:47;7.22;;;3.30;;
61527;SDS011;47395;42.032;-8.634;2022-10-17T04:05:49;3.47;;;3.10;;
61527;SDS011;47395;42.032;-8.634;2022-10-17T04:07:50;7.43;;;3.33;;
61527;SDS011;47395;42.032;-8.634;2022-10-17T04:09:56;3.03;;;2.92;;
61527;SDS011;47395;42.032;-8.634;2022-10-17T04:11:57;5.65;;;2.90;;
61527;SDS011;47395;42.032;-8.634;2022-10-17T04:13:58;3.20;;;2.95;;
61527;SDS011;47395;42.032;-8.634;2022-10-17T04:16:03;6.82;;;2.90;;
61527;SDS011;47395;42.032;-8.634;2022-10-17T04:18:06;3.22;;;3.03;;
61527;SDS011;47395;42.032;-8.634;2022-10-17T04:20:07;3.53;;;3.25;;
61527;SDS011;47395;42.032;-8.634;2022-10-17T04:22:09;6.18;;;3.30;;
61527;SDS011;47395;42.032;-8.634;2022-10-17T04:24:13;3.92;;;3.72;;
61527;SDS011;47395;42.032;-8.634;2022-10-17T04:26:29;6.00;;;3.20;;
61527;SDS011;47395;42.032;-8.634;2022-10-17T04:28:30;3.05;;;2.90;;
61527;SDS011;47395;42.032;-8.634;2022-10-17T04:30:32;3.25;;;3.08;;
61527;SDS011;47395;42.032;-8.634;2022-10-17T04:32:35;3.15;;;3.05;;
61527;SDS011;47395;42.032;-8.634;2022-10-17T04:34:49;3.10;;;2.90;;
61527;SDS011;47395;42.032;-8.634;2022-10-17T04:36:50;3.70;;;2.70;;
61527;SDS011;47395;42.032;-8.634;2022-10-17T04:38:59;4.20;;;2.65;;
61527;SDS011;47395;42.032;-8.634;2022-10-17T04:41:07;2.40;;;2.30;;
61527;SDS011;47395;42.032;-8.634;2022-10-17T04:43:10;7.22;;;2.13;;
61527;SDS011;47395;42.032;-8.634;2022-10-17T04:45:12;5.45;;;2.03;;
61527;SDS011;47395;42.032;-8.634;2022-10-17T04:47:14;2.50;;;2.40;;
61527;SDS011;47395;42.032;-8.634;2022-10-17T04:49:16;3.35;;;1.98;;
61527;SDS011;47395;42.032;-8.634;2022-10-17T04:51:20;5.95;;;2.38;;
61527;SDS011;47395;42.032;-8.634;2022-10-17T04:53:39;3.47;;;2.20;;
61527;SDS011;47395;42.032;-8.634;2022-10-17T04:55:42;5.75;;;2.33;;
61527;SDS011;47395;42.032;-8.634;2022-10-17T04:57:43;2.70;;;2.50;;
61527;SDS011;47395;42.032;-8.634;2022-10-17T04:59:53;4.45;;;2.30;;
61527;SDS011;47395;42.032;-8.634;2022-10-17T05:02:07;2.10;;;2.00;;
61527;SDS011;47395;42.032;-8.634;2022-10-17T05:04:10;1.88;;;1.88;;
61527;SDS011;47395;42.032;-8.634;2022-10-17T05:06:12;5.65;;;2.38;;
61527;SDS011;47395;42.032;-8.634;2022-10-17T05:08:16;2.85;;;2.55;;
61527;SDS011;47395;42.032;-8.634;2022-10-17T05:10:17;2.22;;;2.10;;
61527;SDS011;47395;42.032;-8.634;2022-10-17T05:12:22;2.40;;;2.20;;
61527;SDS011;47395;42.032;-8.634;2022-10-17T05:14:23;4.13;;;2.20;;
61527;SDS011;47395;42.032;-8.634;2022-10-17T05:16:24;2.42;;;2.10;;
61527;SDS011;47395;42.032;-8.634;2022-10-17T05:18:26;6.07;;;2.20;;
61527;SDS011;47395;42.032;-8.634;2022-10-17T05:20:28;3.92;;;2.00;;
61527;SDS011;47395;42.032;-8.634;2022-10-17T05:22:29;5.03;;;2.42;;
61527;SDS011;47395;42.032;-8.634;2022-10-17T05:24:31;2.97;;;2.15;;
61527;SDS011;47395;42.032;-8.634;2022-10-17T05:26:31;1.90;;;1.80;;
61527;SDS011;47395;42.032;-8.634;2022-10-17T05:28:33;2.15;;;2.05;;
61527;SDS011;47395;42.032;-8.634;2022-10-17T05:30:34;1.85;;;1.75;;
61527;SDS011;47395;42.032;-8.634;2022-10-17T05:32:36;4.57;;;2.00;;
61527;SDS011;47395;42.032;-8.634;2022-10-17T05:34:37;4.78;;;2.22;;
61527;SDS011;47395;42.032;-8.634;2022-10-17T05:36:38;3.40;;;2.30;;
61527;SDS011;47395;42.032;-8.634;2022-10-17T05:38:40;2.38;;;2.20;;
61527;SDS011;47395;42.032;-8.634;2022-10-17T05:40:42;2.47;;;2.13;;
61527;SDS011;47395;42.032;-8.634;2022-10-17T05:42:46;2.15;;;2.05;;
61527;SDS011;47395;42.032;-8.634;2022-10-17T05:44:48;4.60;;;2.10;;
61527;SDS011;47395;42.032;-8.634;2022-10-17T05:46:52;6.80;;;2.80;;
61527;SDS011;47395;42.032;-8.634;2022-10-17T05:48:53;4.93;;;2.78;;
61527;SDS011;47395;42.032;-8.634;2022-10-17T05:50:58;3.55;;;2.85;;
61527;SDS011;47395;42.032;-8.634;2022-10-17T05:53:00;6.38;;;2.97;;
61527;SDS011;47395;42.032;-8.634;2022-10-17T05:55:02;3.03;;;2.83;;
61527;SDS011;47395;42.032;-8.634;2022-10-17T05:57:05;3.08;;;2.83;;
61527;SDS011;47395;42.032;-8.634;2022-10-17T05:59:06;3.28;;;2.97;;
61527;SDS011;47395;42.032;-8.634;2022-10-17T06:01:27;3.22;;;3.10;;
61527;SDS011;47395;42.032;-8.634;2022-10-17T06:03:29;5.05;;;3.47;;
61527;SDS011;47395;42.032;-8.634;2022-10-17T06:05:34;3.40;;;3.10;;
61527;SDS011;47395;42.032;-8.634;2022-10-17T06:07:35;4.57;;;2.90;;
61527;SDS011;47395;42.032;-8.634;2022-10-17T06:09:36;3.13;;;2.78;;
61527;SDS011;47395;42.032;-8.634;2022-10-17T06:11:37;4.78;;;3.40;;
61527;SDS011;47395;42.032;-8.634;2022-10-17T06:13:39;3.75;;;3.42;;
61527;SDS011;47395;42.032;-8.634;2022-10-17T06:15:46;5.75;;;3.25;;
61527;SDS011;47395;42.032;-8.634;2022-10-17T06:17:49;3.08;;;2.90;;
61527;SDS011;47395;42.032;-8.634;2022-10-17T06:19:49;4.20;;;3.33;;
61527;SDS011;47395;42.032;-8.634;2022-10-17T06:21:50;5.00;;;3.42;;
61527;SDS011;47395;42.032;-8.634;2022-10-17T06:23:54;8.20;;;3.20;;
61527;SDS011;47395;42.032;-8.634;2022-10-17T06:26:03;3.75;;;2.95;;
61527;SDS011;47395;42.032;-8.634;2022-10-17T06:28:06;10.88;;;8.48;;
61527;SDS011;47395;42.032;-8.634;2022-10-17T06:30:07;12.00;;;8.43;;
61527;SDS011;47395;42.032;-8.634;2022-10-17T06:32:08;8.88;;;5.53;;
61527;SDS011;47395;42.032;-8.634;2022-10-17T06:34:09;4.65;;;4.25;;
61527;SDS011;47395;42.032;-8.634;2022-10-17T06:36:12;5.00;;;3.10;;
61527;SDS011;47395;42.032;-8.634;2022-10-17T06:38:14;4.32;;;3.60;;
61527;SDS011;47395;42.032;-8.634;2022-10-17T06:40:15;9.32;;;5.90;;
61527;SDS011;47395;42.032;-8.634;2022-10-17T06:42:16;15.90;;;10.27;;
61527;SDS011;47395;42.032;-8.634;2022-10-17T06:44:21;10.73;;;8.55;;
61527;SDS011;47395;42.032;-8.634;2022-10-17T06:46:43;6.10;;;5.60;;
61527;SDS011;47395;42.032;-8.634;2022-10-17T06:48:47;4.60;;;4.20;;
61527;SDS011;47395;42.032;-8.634;2022-10-17T06:51:23;3.85;;;3.58;;
61527;SDS011;47395;42.032;-8.634;2022-10-17T06:53:29;3.50;;;3.22;;
61527;SDS011;47395;42.032;-8.634;2022-10-17T06:55:52;5.10;;;3.55;;
61527;SDS011;47395;42.032;-8.634;2022-10-17T06:58:18;5.32;;;3.13;;
61527;SDS011;47395;42.032;-8.634;2022-10-17T07:00:35;6.13;;;3.58;;
61527;SDS011;47395;42.032;-8.634;2022-10-17T07:02:36;3.75;;;3.17;;
61527;SDS011;47395;42.032;-8.634;2022-10-17T07:04:36;33.92;;;22.23;;
61527;SDS011;47395;42.032;-8.634;2022-10-17T07:06:37;36.17;;;21.63;;
61527;SDS011;47395;42.032;-8.634;2022-10-17T07:08:45;37.10;;;26.42;;
61527;SDS011;47395;42.032;-8.634;2022-10-17T07:10:48;22.23;;;19.08;;
61527;SDS011;47395;42.032;-8.634;2022-10-17T07:12:49;15.27;;;9.88;;
61527;SDS011;47395;42.032;-8.634;2022-10-17T07:14:50;7.63;;;5.78;;
61527;SDS011;47395;42.032;-8.634;2022-10-17T07:16:52;6.93;;;5.75;;
61527;SDS011;47395;42.032;-8.634;2022-10-17T07:18:56;9.20;;;6.78;;
61527;SDS011;47395;42.032;-8.634;2022-10-17T07:20:57;7.80;;;7.28;;
61527;SDS011;47395;42.032;-8.634;2022-10-17T07:22:59;10.60;;;6.55;;
61527;SDS011;47395;42.032;-8.634;2022-10-17T07:25:00;6.80;;;4.43;;
61527;SDS011;47395;42.032;-8.634;2022-10-17T07:27:04;6.07;;;3.85;;
61527;SDS011;47395;42.032;-8.634;2022-10-17T07:29:06;8.63;;;4.07;;
61527;SDS011;47395;42.032;-8.634;2022-10-17T07:31:17;4.75;;;3.38;;
61527;SDS011;47395;42.032;-8.634;2022-10-17T07:33:19;10.95;;;3.45;;
61527;SDS011;47395;42.032;-8.634;2022-10-17T07:35:20;13.90;;;3.53;;
61527;SDS011;47395;42.032;-8.634;2022-10-17T07:37:21;8.57;;;3.97;;
61527;SDS011;47395;42.032;-8.634;2022-10-17T07:39:27;7.63;;;4.60;;
61527;SDS011;47395;42.032;-8.634;2022-10-17T07:41:28;5.68;;;3.80;;
61527;SDS011;47395;42.032;-8.634;2022-10-17T07:43:29;8.73;;;4.30;;
61527;SDS011;47395;42.032;-8.634;2022-10-17T07:45:32;8.43;;;4.10;;
61527;SDS011;47395;42.032;-8.634;2022-10-17T07:47:33;10.40;;;4.63;;
61527;SDS011;47395;42.032;-8.634;2022-10-17T07:49:39;8.90;;;4.45;;
61527;SDS011;47395;42.032;-8.634;2022-10-17T07:51:42;13.38;;;5.13;;
61527;SDS011;47395;42.032;-8.634;2022-10-17T07:53:43;7.53;;;5.40;;
61527;SDS011;47395;42.032;-8.634;2022-10-17T07:55:44;11.30;;;6.03;;
61527;SDS011;47395;42.032;-8.634;2022-10-17T07:57:47;11.73;;;5.60;;
61527;SDS011;47395;42.032;-8.634;2022-10-17T07:59:47;9.82;;;5.30;;
61527;SDS011;47395;42.032;-8.634;2022-10-17T08:01:50;10.10;;;5.68;;
61527;SDS011;47395;42.032;-8.634;2022-10-17T08:03:50;8.23;;;5.40;;
61527;SDS011;47395;42.032;-8.634;2022-10-17T08:05:51;9.18;;;5.65;;
61527;SDS011;47395;42.032;-8.634;2022-10-17T08:07:56;11.32;;;5.13;;
61527;SDS011;47395;42.032;-8.634;2022-10-17T08:09:57;9.30;;;4.40;;
61527;SDS011;47395;42.032;-8.634;2022-10-17T08:11:58;10.23;;;4.05;;
61527;SDS011;47395;42.032;-8.634;2022-10-17T08:13:59;14.60;;;4.25;;
61527;SDS011;47395;42.032;-8.634;2022-10-17T08:16:00;10.20;;;3.97;;
61527;SDS011;47395;42.032;-8.634;2022-10-17T08:18:02;6.55;;;3.67;;
61527;SDS011;47395;42.032;-8.634;2022-10-17T08:20:03;7.00;;;3.40;;
61527;SDS011;47395;42.032;-8.634;2022-10-17T08:22:05;10.05;;;3.70;;
61527;SDS011;47395;42.032;-8.634;2022-10-17T08:24:07;5.65;;;3.47;;
61527;SDS011;47395;42.032;-8.634;2022-10-17T08:26:08;4.60;;;3.35;;
61527;SDS011;47395;42.032;-8.634;2022-10-17T08:28:12;5.90;;;3.63;;
61527;SDS011;47395;42.032;-8.634;2022-10-17T08:30:13;7.05;;;3.50;;
61527;SDS011;47395;42.032;-8.634;2022-10-17T08:32:14;7.63;;;3.47;;
61527;SDS011;47395;42.032;-8.634;2022-10-17T08:34:14;5.88;;;3.42;;
61527;SDS011;47395;42.032;-8.634;2022-10-17T08:36:16;8.82;;;4.00;;
61527;SDS011;47395;42.032;-8.634;2022-10-17T08:38:18;4.60;;;3.97;;
61527;SDS011;47395;42.032;-8.634;2022-10-17T08:40:20;13.68;;;4.60;;
61527;SDS011;47395;42.032;-8.634;2022-10-17T08:47:41;11.10;;;4.85;;
61527;SDS011;47395;42.032;-8.634;2022-10-17T08:49:51;7.63;;;3.95;;
61527;SDS011;47395;42.032;-8.634;2022-10-17T08:51:58;14.20;;;5.70;;
61527;SDS011;47395;42.032;-8.634;2022-10-17T08:54:13;11.20;;;4.90;;
61527;SDS011;47395;42.032;-8.634;2022-10-17T08:56:20;8.73;;;4.55;;
61527;SDS011;47395;42.032;-8.634;2022-10-17T08:58:27;7.85;;;4.32;;
61527;SDS011;47395;42.032;-8.634;2022-10-17T09:00:31;12.73;;;4.85;;
61527;SDS011;47395;42.032;-8.634;2022-10-17T09:10:18;6.53;;;4.30;;
61527;SDS011;47395;42.032;-8.634;2022-10-17T09:20:00;9.45;;;4.32;;
61527;SDS011;47395;42.032;-8.634;2022-10-17T09:22:11;16.08;;;4.53;;
61527;SDS011;47395;42.032;-8.634;2022-10-17T09:24:21;14.25;;;4.90;;
61527;SDS011;47395;42.032;-8.634;2022-10-17T09:26:38;13.27;;;4.78;;
61527;SDS011;47395;42.032;-8.634;2022-10-17T09:28:40;16.85;;;4.90;;
61527;SDS011;47395;42.032;-8.634;2022-10-17T09:30:43;12.63;;;5.75;;
61527;SDS011;47395;42.032;-8.634;2022-10-17T09:32:49;9.55;;;5.38;;
61527;SDS011;47395;42.032;-8.634;2022-10-17T09:34:51;17.75;;;5.68;;
61527;SDS011;47395;42.032;-8.634;2022-10-17T09:36:53;11.48;;;6.10;;
61527;SDS011;47395;42.032;-8.634;2022-10-17T09:39:01;8.40;;;5.03;;
61527;SDS011;47395;42.032;-8.634;2022-10-17T09:41:04;10.25;;;4.30;;
61527;SDS011;47395;42.032;-8.634;2022-10-17T09:43:12;6.45;;;4.50;;
61527;SDS011;47395;42.032;-8.634;2022-10-17T09:49:35;7.68;;;4.57;;
61527;SDS011;47395;42.032;-8.634;2022-10-17T09:51:38;10.88;;;4.53;;
61527;SDS011;47395;42.032;-8.634;2022-10-17T09:53:40;10.30;;;4.93;;
61527;SDS011;47395;42.032;-8.634;2022-10-17T09:55:50;8.75;;;4.85;;
61527;SDS011;47395;42.032;-8.634;2022-10-17T09:57:56;8.68;;;4.70;;
61527;SDS011;47395;42.032;-8.634;2022-10-17T10:00:03;6.78;;;4.47;;
61527;SDS011;47395;42.032;-8.634;2022-10-17T10:02:20;8.68;;;4.65;;
61527;SDS011;47395;42.032;-8.634;2022-10-17T10:04:23;9.50;;;5.68;;
61527;SDS011;47395;42.032;-8.634;2022-10-17T10:06:25;13.30;;;4.95;;
61527;SDS011;47395;42.032;-8.634;2022-10-17T10:08:27;7.32;;;4.63;;
61527;SDS011;47395;42.032;-8.634;2022-10-17T10:10:30;9.20;;;4.88;;
61527;SDS011;47395;42.032;-8.634;2022-10-17T10:12:33;10.75;;;4.90;;
61527;SDS011;47395;42.032;-8.634;2022-10-17T10:14:36;7.97;;;4.93;;
61527;SDS011;47395;42.032;-8.634;2022-10-17T10:16:40;13.07;;;4.85;;
61527;SDS011;47395;42.032;-8.634;2022-10-17T10:18:43;12.60;;;4.80;;
61527;SDS011;47395;42.032;-8.634;2022-10-17T10:20:47;8.10;;;5.05;;
61527;SDS011;47395;42.032;-8.634;2022-10-17T10:23:10;9.98;;;4.90;;
61527;SDS011;47395;42.032;-8.634;2022-10-17T10:25:16;9.23;;;4.80;;
61527;SDS011;47395;42.032;-8.634;2022-10-17T10:27:18;8.25;;;4.65;;
61527;SDS011;47395;42.032;-8.634;2022-10-17T10:31:40;8.18;;;4.57;;
61527;SDS011;47395;42.032;-8.634;2022-10-17T10:33:41;4.95;;;3.00;;
61527;SDS011;47395;42.032;-8.634;2022-10-17T10:35:43;5.68;;;3.50;;
61527;SDS011;47395;42.032;-8.634;2022-10-17T10:37:55;5.85;;;3.58;;
61527;SDS011;47395;42.032;-8.634;2022-10-17T10:39:58;5.22;;;3.75;;
61527;SDS011;47395;42.032;-8.634;2022-10-17T10:42:02;9.50;;;4.43;;
61527;SDS011;47395;42.032;-8.634;2022-10-17T10:44:10;6.88;;;4.35;;
61527;SDS011;47395;42.032;-8.634;2022-10-17T10:46:21;9.05;;;4.47;;
61527;SDS011;47395;42.032;-8.634;2022-10-17T10:48:34;8.40;;;5.15;;
61527;SDS011;47395;42.032;-8.634;2022-10-17T10:50:42;7.35;;;4.80;;
61527;SDS011;47395;42.032;-8.634;2022-10-17T10:53:08;9.05;;;4.72;;
61527;SDS011;47395;42.032;-8.634;2022-10-17T10:57:42;5.45;;;4.50;;
61527;SDS011;47395;42.032;-8.634;2022-10-17T10:59:54;10.50;;;4.22;;
61527;SDS011;47395;42.032;-8.634;2022-10-17T11:04:43;11.68;;;4.05;;
61527;SDS011;47395;42.032;-8.634;2022-10-17T11:06:51;7.15;;;4.05;;
61527;SDS011;47395;42.032;-8.634;2022-10-17T11:09:10;6.80;;;4.25;;
61527;SDS011;47395;42.032;-8.634;2022-10-17T11:11:32;7.00;;;4.00;;
61527;SDS011;47395;42.032;-8.634;2022-10-17T11:13:43;6.55;;;4.13;;
61527;SDS011;47395;42.032;-8.634;2022-10-17T11:16:17;7.15;;;4.30;;
61527;SDS011;47395;42.032;-8.634;2022-10-17T11:18:39;5.00;;;3.88;;
61527;SDS011;47395;42.032;-8.634;2022-10-17T11:23:14;6.50;;;4.00;;
61527;SDS011;47395;42.032;-8.634;2022-10-17T11:25:31;4.97;;;3.15;;
61527;SDS011;47395;42.032;-8.634;2022-10-17T11:27:37;3.38;;;3.03;;
61527;SDS011;47395;42.032;-8.634;2022-10-17T11:29:38;11.90;;;3.80;;
61527;SDS011;47395;42.032;-8.634;2022-10-17T11:31:42;4.63;;;3.30;;
61527;SDS011;47395;42.032;-8.634;2022-10-17T11:33:55;6.90;;;3.75;;
61527;SDS011;47395;42.032;-8.634;2022-10-17T11:36:20;4.45;;;3.20;;
61527;SDS011;47395;42.032;-8.634;2022-10-17T11:40:51;6.18;;;4.10;;
61527;SDS011;47395;42.032;-8.634;2022-10-17T11:45:22;5.28;;;3.78;;
61527;SDS011;47395;42.032;-8.634;2022-10-17T11:47:45;6.53;;;4.50;;
61527;SDS011;47395;42.032;-8.634;2022-10-17T11:49:49;5.47;;;4.88;;
61527;SDS011;47395;42.032;-8.634;2022-10-17T11:51:56;9.20;;;5.10;;
61527;SDS011;47395;42.032;-8.634;2022-10-17T11:54:27;6.82;;;4.28;;
61527;SDS011;47395;42.032;-8.634;2022-10-17T11:57:21;8.02;;;4.88;;
61527;SDS011;47395;42.032;-8.634;2022-10-17T12:04:03;8.32;;;4.72;;
61527;SDS011;47395;42.032;-8.634;2022-10-17T12:06:44;11.50;;;5.30;;
61527;SDS011;47395;42.032;-8.634;2022-10-17T12:09:06;11.65;;;5.50;;
61527;SDS011;47395;42.032;-8.634;2022-10-17T12:11:42;8.80;;;5.47;;
61527;SDS011;47395;42.032;-8.634;2022-10-17T12:13:58;9.57;;;5.97;;
61527;SDS011;47395;42.032;-8.634;2022-10-17T12:18:39;12.90;;;7.20;;
61527;SDS011;47395;42.032;-8.634;2022-10-17T12:20:39;12.30;;;6.97;;
61527;SDS011;47395;42.032;-8.634;2022-10-17T12:22:47;16.30;;;7.07;;
61527;SDS011;47395;42.032;-8.634;2022-10-17T12:25:15;8.35;;;6.70;;
61527;SDS011;47395;42.032;-8.634;2022-10-17T12:29:49;14.88;;;7.30;;
61527;SDS011;47395;42.032;-8.634;2022-10-17T12:32:10;14.68;;;6.63;;
61527;SDS011;47395;42.032;-8.634;2022-10-17T12:34:14;11.00;;;6.90;;
61527;SDS011;47395;42.032;-8.634;2022-10-17T12:38:48;14.88;;;7.50;;
61527;SDS011;47395;42.032;-8.634;2022-10-17T12:40:52;10.32;;;6.70;;
61527;SDS011;47395;42.032;-8.634;2022-10-17T12:42:54;14.82;;;7.32;;
61527;SDS011;47395;42.032;-8.634;2022-10-17T12:44:54;7.70;;;6.38;;
61527;SDS011;47395;42.032;-8.634;2022-10-17T12:46:56;9.23;;;6.47;;
61527;SDS011;47395;42.032;-8.634;2022-10-17T12:49:36;13.88;;;6.03;;
61527;SDS011;47395;42.032;-8.634;2022-10-17T12:54:17;13.88;;;6.75;;
61527;SDS011;47395;42.032;-8.634;2022-10-17T12:56:19;12.32;;;6.38;;
61527;SDS011;47395;42.032;-8.634;2022-10-17T12:58:21;14.88;;;6.15;;
61527;SDS011;47395;42.032;-8.634;2022-10-17T13:00:31;17.67;;;6.28;;
61527;SDS011;47395;42.032;-8.634;2022-10-17T13:02:57;8.80;;;5.40;;
61527;SDS011;47395;42.032;-8.634;2022-10-17T13:05:13;10.85;;;5.50;;
61527;SDS011;47395;42.032;-8.634;2022-10-17T13:07:19;14.40;;;6.70;;
61527;SDS011;47395;42.032;-8.634;2022-10-17T13:09:31;11.77;;;6.13;;
61527;SDS011;47395;42.032;-8.634;2022-10-17T13:11:35;16.48;;;6.05;;
61527;SDS011;47395;42.032;-8.634;2022-10-17T13:13:43;11.05;;;6.13;;
61527;SDS011;47395;42.032;-8.634;2022-10-17T13:15:48;14.07;;;6.93;;
61527;SDS011;47395;42.032;-8.634;2022-10-17T13:17:54;14.82;;;6.80;;
61527;SDS011;47395;42.032;-8.634;2022-10-17T13:19:59;11.18;;;6.75;;
61527;SDS011;47395;42.032;-8.634;2022-10-17T13:22:02;18.75;;;6.25;;
61527;SDS011;47395;42.032;-8.634;2022-10-17T13:24:19;10.88;;;6.88;;
61527;SDS011;47395;42.032;-8.634;2022-10-17T13:26:29;14.60;;;6.60;;
61527;SDS011;47395;42.032;-8.634;2022-10-17T13:28:30;10.48;;;6.25;;
61527;SDS011;47395;42.032;-8.634;2022-10-17T13:30:32;18.30;;;6.88;;
61527;SDS011;47395;42.032;-8.634;2022-10-17T13:32:36;12.90;;;7.78;;
61527;SDS011;47395;42.032;-8.634;2022-10-17T13:34:38;18.27;;;10.48;;
61527;SDS011;47395;42.032;-8.634;2022-10-17T13:36:38;23.52;;;12.52;;
61527;SDS011;47395;42.032;-8.634;2022-10-17T13:38:42;16.00;;;7.15;;
61527;SDS011;47395;42.032;-8.634;2022-10-17T13:40:43;13.60;;;6.63;;